Black Eagle, Montana
Current Conditions -  °F | °C
As of 6:56 AM on Saturday 20 Dec 2014 (Local Time) from KGFA Reporting Station
Scattered Clouds Scattered Clouds  
Wind Chill: 20°   Ceiling: Unl
Heat Index: 30°   Visibility: 10mi
Dew Point: 22°   Wind: 12mph
Humidity: 73%   Direction: 210°SSW
Pressure: 29.89"   Gusts: NA
Location:  47.53°N, 111.28°W
Report Text: KGFA 201356Z AUTO 21010KT 10SM SCT210 M01/M05 A2989 RMK AO2 SLP151 T10131055
Loading
Personal Weather Stations






























Interactive Weather Map New forecast layout! Learn more

10-Day Weather Forecast

Advertisements
Track Severe Weather on mobile